Houlka, Mississippi
Current Conditions -  °F | °C
As of 9:53 PM on Wednesday 22 Oct 2014 (Local Time) from KTUP Reporting Station
Clear Clear  
Wind Chill: 46°   Ceiling: Unl
Heat Index: 49°   Visibility: 10mi
Dew Point: 43°   Wind: 7mph
Humidity: 80%   Direction: 30°NNE
Pressure: 30.18"   Gusts: NA
Location:  34.04°N, 89.02°W
Report Text: KTUP 230253Z 03006KT 10SM CLR 09/06 A3018 RMK AO2 SLP218 T00940061 50010
Loading
Personal Weather Stations






























Interactive Weather Map
Tropical Storm Tracking
New forecast layout! Learn more

10-Day Weather Forecast

Advertisements
Track Severe Weather on mobile